Time,TemperatureF,DewpointF,PressureIn,WindDirection,WindDirectionDegrees,WindSpeedMPH,WindSpeedGustMPH,Humidity,HourlyPrecipIn,Conditions,Clouds,dailyrainin,SoftwareType,DateUTC
2013-10-13 00:08:00,57.1,35.9,30.12,NNW,335,0.0,0.0,45,0.00,,,0.00,Wunderground v.1.15,2013-10-13 06:08:00,
2013-10-13 00:18:00,56.0,36.0,30.12,SSE,149,1.0,1.0,47,0.00,,,0.00,Wunderground v.1.15,2013-10-13 06:18:00,
2013-10-13 00:28:00,55.2,35.8,30.12,ESE,115,1.0,1.0,48,0.00,,,0.00,Wunderground v.1.15,2013-10-13 06:28:00,
2013-10-13 00:38:00,55.1,35.7,30.13,NNW,330,0.0,1.0,48,0.00,,,0.00,Wunderground v.1.15,2013-10-13 06:38:00,
2013-10-13 00:48:00,54.3,36.0,30.13,NW,325,1.0,1.0,50,0.00,,,0.00,Wunderground v.1.15,2013-10-13 06:48:00,
2013-10-13 00:58:00,53.3,36.1,30.13,NNW,328,0.0,0.0,52,0.00,,,0.00,Wunderground v.1.15,2013-10-13 06:58:00,
2013-10-13 01:08:00,52.4,35.8,30.13,NW,324,0.0,0.0,53,0.00,,,0.00,Wunderground v.1.15,2013-10-13 07:08:00,
2013-10-13 01:18:00,51.8,36.1,30.13,West,266,0.0,0.0,55,0.00,,,0.00,Wunderground v.1.15,2013-10-13 07:18:00,
2013-10-13 01:28:00,51.4,35.8,30.13,West,267,0.0,0.0,55,0.00,,,0.00,Wunderground v.1.15,2013-10-13 07:28:00,
2013-10-13 01:38:00,50.4,36.2,30.13,West,267,0.0,0.0,58,0.00,,,0.00,Wunderground v.1.15,2013-10-13 07:38:00,
2013-10-13 01:48:00,49.3,36.8,30.13,SW,235,0.0,0.0,62,0.00,,,0.00,Wunderground v.1.15,2013-10-13 07:48:00,
2013-10-13 01:58:00,49.0,36.1,30.13,SW,235,0.0,0.0,61,0.00,,,0.00,Wunderground v.1.15,2013-10-13 07:58:00,
2013-10-13 02:08:00,48.4,36.4,30.13,SW,235,0.0,0.0,63,0.00,,,0.00,Wunderground v.1.15,2013-10-13 08:08:00,
2013-10-13 02:18:00,47.8,36.6,30.13,SE,135,0.0,0.0,65,0.00,,,0.00,Wunderground v.1.15,2013-10-13 08:18:00,
2013-10-13 02:23:00,48.1,36.9,30.13,SE,135,0.0,0.0,65,0.00,,,0.00,Wunderground v.1.15,2013-10-13 08:23:00,
2013-10-13 02:33:00,48.2,37.0,30.13,SE,135,0.0,0.0,65,0.00,,,0.00,Wunderground v.1.15,2013-10-13 08:33:00,
2013-10-13 02:43:00,48.1,36.9,30.13,SE,136,0.0,0.0,65,0.00,,,0.00,Wunderground v.1.15,2013-10-13 08:43:00,
2013-10-13 02:53:00,47.8,37.0,30.13,SE,135,0.0,0.0,66,0.00,,,0.00,Wunderground v.1.15,2013-10-13 08:53:00,
2013-10-13 02:58:00,47.9,37.5,30.13,SE,135,0.0,0.0,67,0.00,,,0.00,Wunderground v.1.15,2013-10-13 08:58:00,
2013-10-13 03:08:00,48.3,37.5,30.12,SE,135,0.0,0.0,66,0.00,,,0.00,Wunderground v.1.15,2013-10-13 09:08:00,
2013-10-13 03:18:00,48.4,37.6,30.12,SE,136,0.0,0.0,66,0.00,,,0.00,Wunderground v.1.15,2013-10-13 09:18:00,
2013-10-13 03:28:00,48.5,37.7,30.11,SE,135,0.0,0.0,66,0.00,,,0.00,Wunderground v.1.15,2013-10-13 09:28:00,
2013-10-13 03:38:00,48.3,37.8,30.11,SE,136,0.0,0.0,67,0.00,,,0.00,Wunderground v.1.15,2013-10-13 09:38:00,
2013-10-13 03:48:00,48.5,38.0,30.11,SE,136,0.0,0.0,67,0.00,,,0.00,Wunderground v.1.15,2013-10-13 09:48:00,
2013-10-13 03:58:00,48.1,38.0,30.11,SE,135,0.0,0.0,68,0.00,,,0.00,Wunderground v.1.15,2013-10-13 09:58:00,
2013-10-13 04:08:00,47.7,38.0,30.11,SE,125,0.0,0.0,69,0.00,,,0.00,Wunderground v.1.15,2013-10-13 10:08:00,
2013-10-13 04:18:00,47.0,37.4,30.11,SE,125,0.0,0.0,69,0.00,,,0.00,Wunderground v.1.15,2013-10-13 10:18:00,
2013-10-13 04:23:00,46.8,37.5,30.11,SE,126,0.0,0.0,70,0.00,,,0.00,Wunderground v.1.15,2013-10-13 10:23:00,
2013-10-13 04:33:00,46.1,37.6,30.11,SE,125,0.0,0.0,72,0.00,,,0.00,Wunderground v.1.15,2013-10-13 10:33:00,
2013-10-13 04:43:00,45.6,37.8,30.11,SE,126,0.0,0.0,74,0.00,,,0.00,Wunderground v.1.15,2013-10-13 10:43:00,
2013-10-13 04:53:00,45.4,37.2,30.11,SE,127,0.0,0.0,73,0.00,,,0.00,Wunderground v.1.15,2013-10-13 10:53:00,
2013-10-13 04:58:00,45.4,37.2,30.11,SE,127,0.0,0.0,73,0.00,,,0.00,Wunderground v.1.15,2013-10-13 10:58:00,
2013-10-13 05:08:00,45.1,37.3,30.11,SE,127,0.0,0.0,74,0.00,,,0.00,Wunderground v.1.15,2013-10-13 11:08:00,
2013-10-13 05:18:00,44.6,37.2,30.12,SE,127,0.0,0.0,75,0.00,,,0.00,Wunderground v.1.15,2013-10-13 11:18:00,
2013-10-13 05:28:00,44.6,37.5,30.12,ESE,121,0.0,1.0,76,0.00,,,0.00,Wunderground v.1.15,2013-10-13 11:28:00,
2013-10-13 05:38:00,44.7,37.3,30.12,SE,124,0.0,0.0,75,0.00,,,0.00,Wunderground v.1.15,2013-10-13 11:38:00,
2013-10-13 05:43:00,44.6,37.5,30.12,SE,124,0.0,0.0,76,0.00,,,0.00,Wunderground v.1.15,2013-10-13 11:43:00,
2013-10-13 05:53:00,44.3,37.2,30.13,SE,124,0.0,0.0,76,0.00,,,0.00,Wunderground v.1.15,2013-10-13 11:53:00,
2013-10-13 05:58:00,44.2,37.4,30.13,SE,124,0.0,0.0,77,0.00,,,0.00,Wunderground v.1.15,2013-10-13 11:58:00,
2013-10-13 06:08:00,43.9,37.5,30.13,SE,124,0.0,0.0,78,0.00,,,0.00,Wunderground v.1.15,2013-10-13 12:08:00,
2013-10-13 06:18:00,43.7,37.3,30.13,SE,124,0.0,0.0,78,0.00,,,0.00,Wunderground v.1.15,2013-10-13 12:18:00,
2013-10-13 06:23:00,43.7,37.3,30.13,SE,124,0.0,0.0,78,0.00,,,0.00,Wunderground v.1.15,2013-10-13 12:23:00,
2013-10-13 06:33:00,43.5,37.1,30.13,SE,124,0.0,0.0,78,0.00,,,0.00,Wunderground v.1.15,2013-10-13 12:33:00,
2013-10-13 06:43:00,43.6,37.2,30.13,SE,124,0.0,0.0,78,0.00,,,0.00,Wunderground v.1.15,2013-10-13 12:43:00,
2013-10-13 06:53:00,43.5,37.4,30.13,SE,124,0.0,0.0,79,0.00,,,0.00,Wunderground v.1.15,2013-10-13 12:53:00,
2013-10-13 06:58:00,43.7,37.3,30.13,SE,124,0.0,0.0,78,0.00,,,0.00,Wunderground v.1.15,2013-10-13 12:58:00,
2013-10-13 07:08:00,43.6,37.2,30.13,SE,124,0.0,0.0,78,0.00,,,0.00,Wunderground v.1.15,2013-10-13 13:08:00,
2013-10-13 07:18:00,43.7,37.3,30.14,East,94,0.0,0.0,78,0.00,,,0.00,Wunderground v.1.15,2013-10-13 13:18:00,
2013-10-13 07:28:00,44.0,37.6,30.14,SE,134,0.0,0.0,78,0.00,,,0.00,Wunderground v.1.15,2013-10-13 13:28:00,
2013-10-13 07:38:00,43.8,37.4,30.14,SE,135,0.0,0.0,78,0.00,,,0.00,Wunderground v.1.15,2013-10-13 13:38:00,
2013-10-13 07:43:00,43.9,37.5,30.14,SE,136,0.0,0.0,78,0.00,,,0.00,Wunderground v.1.15,2013-10-13 13:43:00,
2013-10-13 07:53:00,44.4,38.0,30.14,ESE,119,0.0,0.0,78,0.00,,,0.00,Wunderground v.1.15,2013-10-13 13:53:00,
2013-10-13 07:58:00,44.9,38.5,30.14,ESE,121,0.0,0.0,78,0.00,,,0.00,Wunderground v.1.15,2013-10-13 13:58:00,
2013-10-13 08:08:00,46.0,38.5,30.14,ESE,121,0.0,0.0,75,0.00,,,0.00,Wunderground v.1.15,2013-10-13 14:08:00,
2013-10-13 08:18:00,46.7,38.5,30.15,South,180,1.0,1.0,73,0.00,,,0.00,Wunderground v.1.15,2013-10-13 14:18:00,
2013-10-13 08:23:00,47.5,38.9,30.15,NW,317,1.0,1.0,72,0.00,,,0.00,Wunderground v.1.15,2013-10-13 14:23:00,
2013-10-13 08:28:00,47.6,38.7,30.15,NW,317,0.0,0.0,71,0.00,,,0.00,Wunderground v.1.15,2013-10-13 14:28:00,
2013-10-13 08:38:00,48.0,39.0,30.16,NW,317,0.0,0.0,71,0.00,,,0.00,Wunderground v.1.15,2013-10-13 14:38:00,
2013-10-13 08:48:00,50.0,38.7,30.16,NW,315,1.0,1.0,65,0.00,,,0.00,Wunderground v.1.15,2013-10-13 14:48:00,
2013-10-13 08:58:00,51.6,39.0,30.16,NNW,340,1.0,1.0,62,0.00,,,0.00,Wunderground v.1.15,2013-10-13 14:58:00,
2013-10-13 09:08:00,52.7,38.8,30.16,NW,325,2.0,4.0,59,0.00,,,0.00,Wunderground v.1.15,2013-10-13 15:08:00,
2013-10-13 09:18:00,53.5,39.1,30.16,NNE,12,2.0,2.0,58,0.00,,,0.00,Wunderground v.1.15,2013-10-13 15:18:00,
2013-10-13 09:28:00,54.5,39.1,30.16,NW,326,2.0,2.0,56,0.00,,,0.00,Wunderground v.1.15,2013-10-13 15:28:00,
2013-10-13 09:38:00,55.7,38.8,30.16,North,349,2.0,2.0,53,0.00,,,0.00,Wunderground v.1.15,2013-10-13 15:38:00,
2013-10-13 09:48:00,56.7,38.8,30.15,NNW,329,2.0,2.0,51,0.00,,,0.00,Wunderground v.1.15,2013-10-13 15:48:00,
2013-10-13 09:58:00,57.8,39.3,30.15,NW,309,2.0,4.0,50,0.00,,,0.00,Wunderground v.1.15,2013-10-13 15:58:00,
2013-10-13 10:08:00,58.4,38.2,30.15,NNW,344,3.0,4.0,47,0.00,,,0.00,Wunderground v.1.15,2013-10-13 16:08:00,
2013-10-13 10:18:00,59.1,38.9,30.15,North,353,3.0,3.0,47,0.00,,,0.00,Wunderground v.1.15,2013-10-13 16:18:00,
2013-10-13 10:23:00,59.4,38.6,30.15,NW,312,3.0,3.0,46,0.00,,,0.00,Wunderground v.1.15,2013-10-13 16:23:00,
2013-10-13 10:33:00,59.9,38.5,30.14,North,360,3.0,3.0,45,0.00,,,0.00,Wunderground v.1.15,2013-10-13 16:33:00,
2013-10-13 10:43:00,60.5,39.0,30.13,NW,319,4.0,4.0,45,0.00,,,0.00,Wunderground v.1.15,2013-10-13 16:43:00,
2013-10-13 10:53:00,61.4,39.3,30.13,NW,316,3.0,5.0,44,0.00,,,0.00,Wunderground v.1.15,2013-10-13 16:53:00,
2013-10-13 10:58:00,62.0,39.8,30.13,North,353,3.0,3.0,44,0.00,,,0.00,Wunderground v.1.15,2013-10-13 16:58:00,
2013-10-13 11:08:00,62.9,40.0,30.12,North,355,2.0,7.0,43,0.00,,,0.00,Wunderground v.1.15,2013-10-13 17:08:00,
2013-10-13 11:18:00,63.4,39.9,30.11,NNW,342,3.0,3.0,42,0.00,,,0.00,Wunderground v.1.15,2013-10-13 17:18:00,
2013-10-13 11:28:00,64.1,40.5,30.11,North,3,2.0,3.0,42,0.00,,,0.00,Wunderground v.1.15,2013-10-13 17:28:00,
2013-10-13 11:38:00,64.8,39.9,30.10,NW,318,2.0,2.0,40,0.00,,,0.00,Wunderground v.1.15,2013-10-13 17:38:00,
2013-10-13 11:48:00,65.7,42.0,30.09,West,278,2.0,2.0,42,0.00,,,0.00,Wunderground v.1.15,2013-10-13 17:48:00,
2013-10-13 11:58:00,67.8,41.9,30.09,South,183,1.0,2.0,39,0.00,,,0.00,Wunderground v.1.15,2013-10-13 17:58:00,
2013-10-13 12:08:00,68.8,41.5,30.08,SSE,150,2.0,4.0,37,0.00,,,0.00,Wunderground v.1.15,2013-10-13 18:08:00,
2013-10-13 12:18:00,68.8,42.8,30.07,East,82,3.0,3.0,39,0.00,,,0.00,Wunderground v.1.15,2013-10-13 18:18:00,
2013-10-13 12:23:00,70.0,43.2,30.07,SSE,150,2.0,3.0,38,0.00,,,0.00,Wunderground v.1.15,2013-10-13 18:23:00,
2013-10-13 12:33:00,71.1,42.8,30.06,WNW,294,1.0,1.0,36,0.00,,,0.00,Wunderground v.1.15,2013-10-13 18:33:00,
2013-10-13 12:43:00,71.4,43.0,30.05,ESE,122,1.0,1.0,36,0.00,,,0.00,Wunderground v.1.15,2013-10-13 18:43:00,
2013-10-13 12:53:00,72.4,43.2,30.05,SSE,150,1.0,1.0,35,0.00,,,0.00,Wunderground v.1.15,2013-10-13 18:53:00,
2013-10-13 12:58:00,72.5,42.5,30.04,SW,235,1.0,3.0,34,0.00,,,0.00,Wunderground v.1.15,2013-10-13 18:58:00,
2013-10-13 13:08:00,71.9,42.0,30.03,NNW,336,4.0,4.0,34,0.00,,,0.00,Wunderground v.1.15,2013-10-13 19:08:00,
2013-10-13 13:18:00,72.1,42.9,30.01,SE,136,3.0,4.0,35,0.00,,,0.00,Wunderground v.1.15,2013-10-13 19:18:00,
2013-10-13 13:28:00,73.1,42.3,30.00,SE,143,5.0,7.0,33,0.00,,,0.00,Wunderground v.1.15,2013-10-13 19:28:00,
2013-10-13 13:38:00,73.6,42.7,29.99,SE,139,5.0,9.0,33,0.00,,,0.00,Wunderground v.1.15,2013-10-13 19:38:00,
2013-10-13 13:48:00,73.7,42.8,29.98,SW,219,7.0,7.0,33,0.00,,,0.00,Wunderground v.1.15,2013-10-13 19:48:00,
2013-10-13 13:58:00,75.0,43.9,29.97,South,191,4.0,4.0,33,0.00,,,0.00,Wunderground v.1.15,2013-10-13 19:58:00,
2013-10-13 14:08:00,75.3,42.6,29.96,SSW,201,6.0,7.0,31,0.00,,,0.00,Wunderground v.1.15,2013-10-13 20:08:00,
2013-10-13 14:18:00,75.4,40.9,29.96,South,181,7.0,11.0,29,0.00,,,0.00,Wunderground v.1.15,2013-10-13 20:18:00,
2013-10-13 14:23:00,75.5,41.9,29.95,SSW,203,6.0,11.0,30,0.00,,,0.00,Wunderground v.1.15,2013-10-13 20:23:00,
2013-10-13 14:33:00,76.1,39.7,29.95,SSW,205,6.0,7.0,27,0.00,,,0.00,Wunderground v.1.15,2013-10-13 20:33:00,
2013-10-13 14:43:00,76.0,36.6,29.94,SSE,156,9.0,17.0,24,0.00,,,0.00,Wunderground v.1.15,2013-10-13 20:43:00,
2013-10-13 14:53:00,76.1,35.6,29.93,SSE,152,12.0,12.0,23,0.00,,,0.00,Wunderground v.1.15,2013-10-13 20:53:00,
2013-10-13 14:58:00,76.1,33.3,29.93,WSW,242,10.0,10.0,21,0.00,,,0.00,Wunderground v.1.15,2013-10-13 20:58:00,
2013-10-13 15:08:00,76.4,34.7,29.92,SW,229,9.0,9.0,22,0.00,,,0.00,Wunderground v.1.15,2013-10-13 21:08:00,
2013-10-13 15:18:00,76.5,34.8,29.92,South,178,9.0,9.0,22,0.00,,,0.00,Wunderground v.1.15,2013-10-13 21:18:00,
2013-10-13 15:28:00,76.4,33.6,29.92,South,184,10.0,11.0,21,0.00,,,0.00,Wunderground v.1.15,2013-10-13 21:28:00,
2013-10-13 15:38:00,76.4,34.7,29.91,South,180,10.0,10.0,22,0.00,,,0.00,Wunderground v.1.15,2013-10-13 21:38:00,
2013-10-13 15:48:00,76.5,35.9,29.91,South,173,11.0,11.0,23,0.00,,,0.00,Wunderground v.1.15,2013-10-13 21:48:00,
2013-10-13 15:58:00,76.4,34.7,29.91,ESE,110,12.0,14.0,22,0.00,,,0.00,Wunderground v.1.15,2013-10-13 21:58:00,
2013-10-13 16:08:00,76.9,35.1,29.90,SSE,160,11.0,11.0,22,0.00,,,0.00,Wunderground v.1.15,2013-10-13 22:08:00,
2013-10-13 16:18:00,77.1,35.3,29.90,SSW,195,10.0,13.0,22,0.00,,,0.00,Wunderground v.1.15,2013-10-13 22:18:00,
2013-10-13 16:23:00,77.1,35.3,29.89,SE,127,10.0,18.0,22,0.00,,,0.00,Wunderground v.1.15,2013-10-13 22:23:00,
2013-10-13 16:33:00,77.0,35.2,29.89,SE,144,9.0,13.0,22,0.00,,,0.00,Wunderground v.1.15,2013-10-13 22:33:00,
2013-10-13 16:43:00,76.5,35.9,29.89,SSE,159,13.0,13.0,23,0.00,,,0.00,Wunderground v.1.15,2013-10-13 22:43:00,
2013-10-13 16:48:00,76.5,35.9,29.89,ESE,119,12.0,12.0,23,0.00,,,0.00,Wunderground v.1.15,2013-10-13 22:48:00,
2013-10-13 16:58:00,75.6,36.2,29.89,SSE,155,11.0,12.0,24,0.00,,,0.00,Wunderground v.1.15,2013-10-13 22:58:00,
2013-10-13 17:08:00,75.9,36.5,29.89,SE,134,11.0,14.0,24,0.00,,,0.00,Wunderground v.1.15,2013-10-13 23:08:00,
2013-10-13 17:13:00,76.0,36.6,29.88,South,191,10.0,14.0,24,0.00,,,0.00,Wunderground v.1.15,2013-10-13 23:13:00,
2013-10-13 17:23:00,76.0,36.6,29.88,SSE,159,11.0,14.0,24,0.00,,,0.00,Wunderground v.1.15,2013-10-13 23:23:00,
2013-10-13 17:33:00,75.8,37.5,29.89,SSE,156,10.0,11.0,25,0.00,,,0.00,Wunderground v.1.15,2013-10-13 23:33:00,
2013-10-13 17:43:00,75.5,38.2,29.88,SE,141,10.0,13.0,26,0.00,,,0.00,Wunderground v.1.15,2013-10-13 23:43:00,
2013-10-13 17:53:00,74.9,37.7,29.88,SE,131,11.0,12.0,26,0.00,,,0.00,Wunderground v.1.15,2013-10-13 23:53:00,
2013-10-13 17:58:00,74.8,37.6,29.88,SE,146,10.0,12.0,26,0.00,,,0.00,Wunderground v.1.15,2013-10-13 23:58:00,
2013-10-13 18:08:00,74.5,38.3,29.88,SE,143,11.0,11.0,27,0.00,,,0.00,Wunderground v.1.15,2013-10-14 00:08:00,
2013-10-13 18:18:00,73.8,37.7,29.88,SSE,149,9.0,9.0,27,0.00,,,0.00,Wunderground v.1.15,2013-10-14 00:18:00,
2013-10-13 18:28:00,73.3,37.3,29.89,ESE,116,9.0,9.0,27,0.00,,,0.00,Wunderground v.1.15,2013-10-14 00:28:00,
2013-10-13 18:38:00,72.5,37.5,29.89,South,181,8.0,9.0,28,0.00,,,0.00,Wunderground v.1.15,2013-10-14 00:38:00,
2013-10-13 18:48:00,72.1,37.2,29.89,SSE,148,8.0,13.0,28,0.00,,,0.00,Wunderground v.1.15,2013-10-14 00:48:00,
2013-10-13 18:58:00,71.7,37.7,29.89,SE,125,7.0,9.0,29,0.00,,,0.00,Wunderground v.1.15,2013-10-14 00:58:00,
2013-10-13 19:08:00,71.4,38.3,29.89,SSE,153,8.0,8.0,30,0.00,,,0.00,Wunderground v.1.15,2013-10-14 01:08:00,
2013-10-13 19:13:00,71.1,39.7,29.90,SE,129,7.0,8.0,32,0.00,,,0.00,Wunderground v.1.15,2013-10-14 01:13:00,
2013-10-13 19:23:00,70.7,40.2,29.90,SE,136,7.0,8.0,33,0.00,,,0.00,Wunderground v.1.15,2013-10-14 01:23:00,
2013-10-13 19:33:00,70.4,40.7,29.90,SSE,153,8.0,8.0,34,0.00,,,0.00,Wunderground v.1.15,2013-10-14 01:33:00,
2013-10-13 19:43:00,70.1,40.4,29.90,ESE,111,7.0,7.0,34,0.00,,,0.00,Wunderground v.1.15,2013-10-14 01:43:00,
2013-10-13 19:53:00,70.1,39.6,29.90,SE,132,8.0,8.0,33,0.00,,,0.00,Wunderground v.1.15,2013-10-14 01:53:00,
2013-10-13 19:58:00,70.1,39.6,29.90,SSE,163,8.0,8.0,33,0.00,,,0.00,Wunderground v.1.15,2013-10-14 01:58:00,
2013-10-13 20:08:00,70.2,39.7,29.91,SE,131,9.0,9.0,33,0.00,,,0.00,Wunderground v.1.15,2013-10-14 02:08:00,
2013-10-13 20:18:00,70.2,39.7,29.91,SSE,155,8.0,8.0,33,0.00,,,0.00,Wunderground v.1.15,2013-10-14 02:18:00,
2013-10-13 20:28:00,70.2,40.5,29.91,SSE,153,8.0,8.0,34,0.00,,,0.00,Wunderground v.1.15,2013-10-14 02:28:00,
2013-10-13 20:38:00,70.2,41.3,29.91,SSE,155,10.0,10.0,35,0.00,,,0.00,Wunderground v.1.15,2013-10-14 02:38:00,
2013-10-13 20:48:00,70.1,40.4,29.91,South,188,10.0,14.0,34,0.00,,,0.00,Wunderground v.1.15,2013-10-14 02:48:00,
2013-10-13 20:58:00,70.0,41.1,29.91,SE,135,10.0,10.0,35,0.00,,,0.00,Wunderground v.1.15,2013-10-14 02:58:00,
2013-10-13 21:08:00,70.0,41.1,29.91,SSE,159,11.0,11.0,35,0.00,,,0.00,Wunderground v.1.15,2013-10-14 03:08:00,
2013-10-13 21:13:00,70.0,41.1,29.91,South,186,11.0,11.0,35,0.00,,,0.00,Wunderground v.1.15,2013-10-14 03:13:00,
2013-10-13 21:23:00,69.6,41.5,29.91,SSE,162,8.0,10.0,36,0.00,,,0.00,Wunderground v.1.15,2013-10-14 03:23:00,
2013-10-13 21:33:00,69.3,41.2,29.91,SSW,207,8.0,10.0,36,0.00,,,0.00,Wunderground v.1.15,2013-10-14 03:33:00,
2013-10-13 21:43:00,68.9,40.8,29.92,SSE,152,8.0,13.0,36,0.00,,,0.00,Wunderground v.1.15,2013-10-14 03:43:00,
2013-10-13 21:53:00,68.3,41.0,29.92,ESE,119,5.0,7.0,37,0.00,,,0.00,Wunderground v.1.15,2013-10-14 03:53:00,
2013-10-13 21:58:00,68.2,40.9,29.92,SSE,147,6.0,6.0,37,0.00,,,0.00,Wunderground v.1.15,2013-10-14 03:58:00,
2013-10-13 22:03:00,68.0,41.4,29.92,SSE,149,6.0,6.0,38,0.00,,,0.00,Wunderground v.1.15,2013-10-14 04:03:00,
2013-10-13 22:08:00,67.9,41.3,29.92,SSE,163,6.0,9.0,38,0.00,,,0.00,Wunderground v.1.15,2013-10-14 04:08:00,
2013-10-13 22:13:00,67.9,41.3,29.92,SE,143,7.0,9.0,38,0.00,,,0.00,Wunderground v.1.15,2013-10-14 04:13:00,
2013-10-13 22:18:00,67.7,41.2,29.92,SSE,165,6.0,6.0,38,0.00,,,0.00,Wunderground v.1.15,2013-10-14 04:18:00,
2013-10-13 22:23:00,67.6,41.1,29.92,ESE,118,6.0,6.0,38,0.00,,,0.00,Wunderground v.1.15,2013-10-14 04:23:00,
2013-10-13 22:33:00,67.2,41.4,29.92,ESE,103,5.0,7.0,39,0.00,,,0.00,Wunderground v.1.15,2013-10-14 04:33:00,
2013-10-13 22:43:00,65.8,42.7,29.92,SSE,154,5.0,6.0,43,0.00,,,0.00,Wunderground v.1.15,2013-10-14 04:43:00,
2013-10-13 22:53:00,64.9,43.0,29.92,SE,145,4.0,5.0,45,0.00,,,0.00,Wunderground v.1.15,2013-10-14 04:53:00,
2013-10-13 22:58:00,64.7,42.9,29.92,SE,128,4.0,4.0,45,0.00,,,0.00,Wunderground v.1.15,2013-10-14 04:58:00,
2013-10-13 23:08:00,64.7,42.3,29.92,SE,146,5.0,5.0,44,0.00,,,0.00,Wunderground v.1.15,2013-10-14 05:08:00,
2013-10-13 23:13:00,64.9,42.5,29.92,SSE,148,5.0,9.0,44,0.00,,,0.00,Wunderground v.1.15,2013-10-14 05:13:00,
2013-10-13 23:23:00,65.3,42.8,29.91,SE,141,6.0,6.0,44,0.00,,,0.00,Wunderground v.1.15,2013-10-14 05:23:00,
2013-10-13 23:33:00,65.1,42.6,29.91,SE,132,6.0,6.0,44,0.00,,,0.00,Wunderground v.1.15,2013-10-14 05:33:00,
2013-10-13 23:43:00,65.3,42.8,29.91,SE,139,8.0,10.0,44,0.00,,,0.00,Wunderground v.1.15,2013-10-14 05:43:00,
2013-10-13 23:53:00,65.4,42.9,29.92,SSE,165,7.0,9.0,44,0.00,,,0.00,Wunderground v.1.15,2013-10-14 05:53:00,
2013-10-13 23:58:00,65.4,42.9,29.92,SSE,156,7.0,7.0,44,0.00,,,0.00,Wunderground v.1.15,2013-10-14 05:58:00,